sensor_id;sensor_type;location;lat;lon;timestamp;P1;durP1;ratioP1;P2;durP2;ratioP2
14704;SDS011;7442;50.840;3.396;2022-09-28T00:00:08;3.12;;;1.00;;
14704;SDS011;7442;50.840;3.396;2022-09-28T00:02:38;1.10;;;0.90;;
14704;SDS011;7442;50.840;3.396;2022-09-28T00:05:08;0.75;;;0.55;;
14704;SDS011;7442;50.840;3.396;2022-09-28T00:07:39;1.72;;;0.80;;
14704;SDS011;7442;50.840;3.396;2022-09-28T00:10:10;1.98;;;0.75;;
14704;SDS011;7442;50.840;3.396;2022-09-28T00:12:40;1.32;;;0.72;;
14704;SDS011;7442;50.840;3.396;2022-09-28T00:15:10;1.32;;;0.70;;
14704;SDS011;7442;50.840;3.396;2022-09-28T00:17:40;2.30;;;0.82;;
14704;SDS011;7442;50.840;3.396;2022-09-28T00:20:12;1.07;;;0.70;;
14704;SDS011;7442;50.840;3.396;2022-09-28T00:22:44;1.57;;;0.90;;
14704;SDS011;7442;50.840;3.396;2022-09-28T00:25:14;0.70;;;0.60;;
14704;SDS011;7442;50.840;3.396;2022-09-28T00:27:48;2.67;;;0.88;;
14704;SDS011;7442;50.840;3.396;2022-09-28T00:30:19;1.65;;;1.00;;
14704;SDS011;7442;50.840;3.396;2022-09-28T00:32:49;0.75;;;0.60;;
14704;SDS011;7442;50.840;3.396;2022-09-28T00:35:19;0.75;;;0.60;;
14704;SDS011;7442;50.840;3.396;2022-09-28T00:37:49;1.50;;;0.90;;
14704;SDS011;7442;50.840;3.396;2022-09-28T00:40:19;1.70;;;0.60;;
14704;SDS011;7442;50.840;3.396;2022-09-28T00:42:49;1.52;;;0.70;;
14704;SDS011;7442;50.840;3.396;2022-09-28T00:45:20;2.33;;;1.15;;
14704;SDS011;7442;50.840;3.396;2022-09-28T00:47:54;2.77;;;0.70;;
14704;SDS011;7442;50.840;3.396;2022-09-28T00:50:27;0.55;;;0.50;;
14704;SDS011;7442;50.840;3.396;2022-09-28T00:53:03;1.00;;;0.70;;
14704;SDS011;7442;50.840;3.396;2022-09-28T00:55:51;1.17;;;0.80;;
14704;SDS011;7442;50.840;3.396;2022-09-28T00:58:24;1.55;;;0.65;;
14704;SDS011;7442;50.840;3.396;2022-09-28T01:00:57;0.70;;;0.70;;
14704;SDS011;7442;50.840;3.396;2022-09-28T01:03:29;2.55;;;0.80;;
14704;SDS011;7442;50.840;3.396;2022-09-28T01:06:02;1.10;;;0.80;;
14704;SDS011;7442;50.840;3.396;2022-09-28T01:08:34;1.02;;;0.65;;
14704;SDS011;7442;50.840;3.396;2022-09-28T01:11:06;1.15;;;0.82;;
14704;SDS011;7442;50.840;3.396;2022-09-28T01:13:36;2.58;;;0.78;;
14704;SDS011;7442;50.840;3.396;2022-09-28T01:19:24;1.20;;;0.80;;
14704;SDS011;7442;50.840;3.396;2022-09-28T01:27:35;1.00;;;0.50;;
14704;SDS011;7442;50.840;3.396;2022-09-28T01:30:15;0.98;;;0.80;;
14704;SDS011;7442;50.840;3.396;2022-09-28T01:32:49;0.68;;;0.60;;
14704;SDS011;7442;50.840;3.396;2022-09-28T01:35:40;1.05;;;0.70;;
14704;SDS011;7442;50.840;3.396;2022-09-28T01:38:22;3.60;;;0.70;;
14704;SDS011;7442;50.840;3.396;2022-09-28T01:41:00;1.72;;;1.02;;
14704;SDS011;7442;50.840;3.396;2022-09-28T01:43:34;1.32;;;0.82;;
14704;SDS011;7442;50.840;3.396;2022-09-28T01:48:53;1.90;;;0.82;;
14704;SDS011;7442;50.840;3.396;2022-09-28T01:51:31;5.53;;;0.75;;
14704;SDS011;7442;50.840;3.396;2022-09-28T01:54:14;1.45;;;0.68;;
14704;SDS011;7442;50.840;3.396;2022-09-28T01:57:07;1.37;;;0.88;;
14704;SDS011;7442;50.840;3.396;2022-09-28T01:59:26;2.08;;;0.80;;
14704;SDS011;7442;50.840;3.396;2022-09-28T02:02:05;1.12;;;0.60;;
14704;SDS011;7442;50.840;3.396;2022-09-28T02:04:46;1.57;;;0.72;;
14704;SDS011;7442;50.840;3.396;2022-09-28T02:07:15;3.15;;;0.82;;
14704;SDS011;7442;50.840;3.396;2022-09-28T02:09:52;1.55;;;0.90;;
14704;SDS011;7442;50.840;3.396;2022-09-28T02:12:20;1.70;;;1.10;;
14704;SDS011;7442;50.840;3.396;2022-09-28T02:14:57;2.42;;;0.57;;
14704;SDS011;7442;50.840;3.396;2022-09-28T02:17:28;1.02;;;0.62;;
14704;SDS011;7442;50.840;3.396;2022-09-28T02:19:58;1.22;;;0.68;;
14704;SDS011;7442;50.840;3.396;2022-09-28T02:22:37;1.12;;;0.62;;
14704;SDS011;7442;50.840;3.396;2022-09-28T02:30:29;2.55;;;0.72;;
14704;SDS011;7442;50.840;3.396;2022-09-28T02:33:14;1.12;;;0.60;;
14704;SDS011;7442;50.840;3.396;2022-09-28T02:35:45;5.97;;;1.40;;
14704;SDS011;7442;50.840;3.396;2022-09-28T02:38:20;0.65;;;0.60;;
14704;SDS011;7442;50.840;3.396;2022-09-28T02:46:51;3.70;;;0.80;;
14704;SDS011;7442;50.840;3.396;2022-09-28T02:49:45;2.00;;;0.60;;
14704;SDS011;7442;50.840;3.396;2022-09-28T02:55:05;1.50;;;0.82;;
14704;SDS011;7442;50.840;3.396;2022-09-28T02:57:56;0.80;;;0.72;;
14704;SDS011;7442;50.840;3.396;2022-09-28T03:00:49;1.42;;;0.70;;
14704;SDS011;7442;50.840;3.396;2022-09-28T03:03:20;3.08;;;0.68;;
14704;SDS011;7442;50.840;3.396;2022-09-28T03:05:59;1.75;;;0.70;;
14704;SDS011;7442;50.840;3.396;2022-09-28T03:08:37;1.35;;;0.82;;
14704;SDS011;7442;50.840;3.396;2022-09-28T03:11:17;0.93;;;0.62;;
14704;SDS011;7442;50.840;3.396;2022-09-28T03:13:52;1.07;;;0.98;;
14704;SDS011;7442;50.840;3.396;2022-09-28T03:16:23;0.80;;;0.70;;
14704;SDS011;7442;50.840;3.396;2022-09-28T03:18:54;0.90;;;0.68;;
14704;SDS011;7442;50.840;3.396;2022-09-28T03:21:26;1.12;;;0.70;;
14704;SDS011;7442;50.840;3.396;2022-09-28T03:23:56;2.20;;;1.62;;
14704;SDS011;7442;50.840;3.396;2022-09-28T03:26:26;1.60;;;0.60;;
14704;SDS011;7442;50.840;3.396;2022-09-28T03:28:56;2.52;;;0.70;;
14704;SDS011;7442;50.840;3.396;2022-09-28T03:31:26;0.60;;;0.60;;
14704;SDS011;7442;50.840;3.396;2022-09-28T03:33:56;1.65;;;0.90;;
14704;SDS011;7442;50.840;3.396;2022-09-28T03:36:26;1.12;;;0.60;;
14704;SDS011;7442;50.840;3.396;2022-09-28T03:38:56;0.68;;;0.60;;
14704;SDS011;7442;50.840;3.396;2022-09-28T03:41:26;0.60;;;0.50;;
14704;SDS011;7442;50.840;3.396;2022-09-28T03:43:56;0.95;;;0.68;;
14704;SDS011;7442;50.840;3.396;2022-09-28T03:46:26;1.00;;;0.57;;
14704;SDS011;7442;50.840;3.396;2022-09-28T03:48:56;1.07;;;0.78;;
14704;SDS011;7442;50.840;3.396;2022-09-28T03:51:27;1.90;;;0.70;;
14704;SDS011;7442;50.840;3.396;2022-09-28T03:53:57;1.02;;;0.60;;
14704;SDS011;7442;50.840;3.396;2022-09-28T03:56:27;1.12;;;0.60;;
14704;SDS011;7442;50.840;3.396;2022-09-28T03:58:57;1.25;;;0.72;;
14704;SDS011;7442;50.840;3.396;2022-09-28T04:01:27;1.50;;;0.68;;
14704;SDS011;7442;50.840;3.396;2022-09-28T04:03:57;2.05;;;0.70;;
14704;SDS011;7442;50.840;3.396;2022-09-28T04:06:27;0.88;;;0.60;;
14704;SDS011;7442;50.840;3.396;2022-09-28T04:08:57;1.07;;;0.78;;
14704;SDS011;7442;50.840;3.396;2022-09-28T04:11:27;0.53;;;0.53;;
14704;SDS011;7442;50.840;3.396;2022-09-28T04:13:57;0.72;;;0.60;;
14704;SDS011;7442;50.840;3.396;2022-09-28T04:16:28;1.35;;;1.22;;
14704;SDS011;7442;50.840;3.396;2022-09-28T04:18:58;1.47;;;0.80;;
14704;SDS011;7442;50.840;3.396;2022-09-28T04:21:28;0.80;;;0.80;;
14704;SDS011;7442;50.840;3.396;2022-09-28T04:23:59;1.20;;;0.80;;
14704;SDS011;7442;50.840;3.396;2022-09-28T04:26:29;2.17;;;1.07;;
14704;SDS011;7442;50.840;3.396;2022-09-28T04:28:59;1.17;;;1.07;;
14704;SDS011;7442;50.840;3.396;2022-09-28T04:31:44;2.33;;;1.27;;
14704;SDS011;7442;50.840;3.396;2022-09-28T04:34:18;1.55;;;1.00;;
14704;SDS011;7442;50.840;3.396;2022-09-28T04:36:49;1.77;;;1.10;;
14704;SDS011;7442;50.840;3.396;2022-09-28T04:39:23;2.58;;;1.20;;
14704;SDS011;7442;50.840;3.396;2022-09-28T04:41:53;1.22;;;1.00;;
14704;SDS011;7442;50.840;3.396;2022-09-28T04:44:24;2.17;;;1.05;;
14704;SDS011;7442;50.840;3.396;2022-09-28T04:46:54;1.77;;;1.10;;
14704;SDS011;7442;50.840;3.396;2022-09-28T04:49:24;1.15;;;0.95;;
14704;SDS011;7442;50.840;3.396;2022-09-28T04:51:54;1.70;;;1.10;;
14704;SDS011;7442;50.840;3.396;2022-09-28T04:54:24;2.20;;;0.80;;
14704;SDS011;7442;50.840;3.396;2022-09-28T04:56:54;1.70;;;1.20;;
14704;SDS011;7442;50.840;3.396;2022-09-28T04:59:25;1.00;;;0.80;;
14704;SDS011;7442;50.840;3.396;2022-09-28T05:01:56;0.90;;;0.85;;
14704;SDS011;7442;50.840;3.396;2022-09-28T05:04:26;2.00;;;1.20;;
14704;SDS011;7442;50.840;3.396;2022-09-28T05:06:57;2.40;;;0.95;;
14704;SDS011;7442;50.840;3.396;2022-09-28T05:09:28;1.00;;;0.90;;
14704;SDS011;7442;50.840;3.396;2022-09-28T05:11:58;0.93;;;0.80;;
14704;SDS011;7442;50.840;3.396;2022-09-28T05:14:29;1.27;;;1.07;;
14704;SDS011;7442;50.840;3.396;2022-09-28T05:16:59;1.60;;;1.00;;
14704;SDS011;7442;50.840;3.396;2022-09-28T05:19:29;7.92;;;1.45;;
14704;SDS011;7442;50.840;3.396;2022-09-28T05:22:01;4.35;;;0.98;;
14704;SDS011;7442;50.840;3.396;2022-09-28T05:24:33;4.25;;;1.10;;
14704;SDS011;7442;50.840;3.396;2022-09-28T05:27:03;3.40;;;1.45;;
14704;SDS011;7442;50.840;3.396;2022-09-28T05:29:33;2.55;;;1.20;;
14704;SDS011;7442;50.840;3.396;2022-09-28T05:32:03;1.40;;;1.22;;
14704;SDS011;7442;50.840;3.396;2022-09-28T05:34:33;3.52;;;1.40;;
14704;SDS011;7442;50.840;3.396;2022-09-28T05:37:03;4.47;;;1.35;;
14704;SDS011;7442;50.840;3.396;2022-09-28T05:39:33;3.27;;;1.20;;
14704;SDS011;7442;50.840;3.396;2022-09-28T05:42:04;4.08;;;1.52;;
14704;SDS011;7442;50.840;3.396;2022-09-28T05:44:35;2.00;;;1.40;;
14704;SDS011;7442;50.840;3.396;2022-09-28T05:47:05;2.72;;;1.60;;
14704;SDS011;7442;50.840;3.396;2022-09-28T05:49:35;2.67;;;1.25;;
14704;SDS011;7442;50.840;3.396;2022-09-28T05:52:06;3.20;;;1.20;;
14704;SDS011;7442;50.840;3.396;2022-09-28T05:54:36;8.43;;;1.57;;
14704;SDS011;7442;50.840;3.396;2022-09-28T05:57:05;3.55;;;1.20;;
14704;SDS011;7442;50.840;3.396;2022-09-28T05:59:36;3.27;;;1.22;;
14704;SDS011;7442;50.840;3.396;2022-09-28T06:02:06;2.40;;;1.30;;
14704;SDS011;7442;50.840;3.396;2022-09-28T06:04:38;1.95;;;1.40;;
14704;SDS011;7442;50.840;3.396;2022-09-28T06:07:08;1.62;;;1.20;;
14704;SDS011;7442;50.840;3.396;2022-09-28T06:09:39;3.65;;;0.98;;
14704;SDS011;7442;50.840;3.396;2022-09-28T06:12:09;2.02;;;1.40;;
14704;SDS011;7442;50.840;3.396;2022-09-28T06:14:39;3.30;;;1.35;;
14704;SDS011;7442;50.840;3.396;2022-09-28T06:17:09;2.22;;;1.30;;
14704;SDS011;7442;50.840;3.396;2022-09-28T06:19:39;4.00;;;1.77;;
14704;SDS011;7442;50.840;3.396;2022-09-28T06:22:09;2.42;;;1.37;;
14704;SDS011;7442;50.840;3.396;2022-09-28T06:24:39;2.42;;;1.40;;
14704;SDS011;7442;50.840;3.396;2022-09-28T06:27:09;2.85;;;1.37;;
14704;SDS011;7442;50.840;3.396;2022-09-28T06:29:39;1.87;;;1.40;;
14704;SDS011;7442;50.840;3.396;2022-09-28T06:32:09;2.45;;;1.30;;
14704;SDS011;7442;50.840;3.396;2022-09-28T06:34:41;3.27;;;1.77;;
14704;SDS011;7442;50.840;3.396;2022-09-28T06:37:11;2.45;;;1.52;;
14704;SDS011;7442;50.840;3.396;2022-09-28T06:39:41;2.40;;;1.42;;
14704;SDS011;7442;50.840;3.396;2022-09-28T06:42:11;1.47;;;1.22;;
14704;SDS011;7442;50.840;3.396;2022-09-28T06:44:42;3.00;;;1.30;;
14704;SDS011;7442;50.840;3.396;2022-09-28T06:47:14;1.57;;;1.30;;
14704;SDS011;7442;50.840;3.396;2022-09-28T06:49:44;2.30;;;1.32;;
14704;SDS011;7442;50.840;3.396;2022-09-28T06:52:22;2.22;;;1.37;;
14704;SDS011;7442;50.840;3.396;2022-09-28T06:54:52;3.33;;;1.30;;
14704;SDS011;7442;50.840;3.396;2022-09-28T06:57:22;1.62;;;1.40;;
14704;SDS011;7442;50.840;3.396;2022-09-28T06:59:52;1.45;;;1.27;;
14704;SDS011;7442;50.840;3.396;2022-09-28T07:02:22;1.95;;;1.35;;
14704;SDS011;7442;50.840;3.396;2022-09-28T07:04:52;3.65;;;1.60;;
14704;SDS011;7442;50.840;3.396;2022-09-28T07:07:23;1.98;;;1.40;;
14704;SDS011;7442;50.840;3.396;2022-09-28T07:09:53;1.62;;;1.15;;
14704;SDS011;7442;50.840;3.396;2022-09-28T07:12:23;4.20;;;1.62;;
14704;SDS011;7442;50.840;3.396;2022-09-28T07:14:53;3.62;;;1.30;;
14704;SDS011;7442;50.840;3.396;2022-09-28T07:17:24;2.95;;;1.50;;
14704;SDS011;7442;50.840;3.396;2022-09-28T07:19:55;2.50;;;1.40;;
14704;SDS011;7442;50.840;3.396;2022-09-28T07:22:26;4.37;;;1.45;;
14704;SDS011;7442;50.840;3.396;2022-09-28T07:24:57;1.82;;;1.10;;
14704;SDS011;7442;50.840;3.396;2022-09-28T07:27:27;5.17;;;1.60;;
14704;SDS011;7442;50.840;3.396;2022-09-28T07:29:57;2.52;;;1.40;;
14704;SDS011;7442;50.840;3.396;2022-09-28T07:32:29;3.10;;;1.20;;
14704;SDS011;7442;50.840;3.396;2022-09-28T07:35:00;2.95;;;1.47;;
14704;SDS011;7442;50.840;3.396;2022-09-28T07:37:33;5.15;;;1.65;;
14704;SDS011;7442;50.840;3.396;2022-09-28T07:40:04;2.60;;;1.30;;
14704;SDS011;7442;50.840;3.396;2022-09-28T07:42:53;6.05;;;1.52;;
14704;SDS011;7442;50.840;3.396;2022-09-28T07:45:24;1.62;;;1.12;;
14704;SDS011;7442;50.840;3.396;2022-09-28T07:47:56;3.15;;;1.50;;
14704;SDS011;7442;50.840;3.396;2022-09-28T07:50:26;2.10;;;1.55;;
14704;SDS011;7442;50.840;3.396;2022-09-28T07:52:57;3.67;;;1.60;;
14704;SDS011;7442;50.840;3.396;2022-09-28T07:55:28;3.77;;;1.70;;
14704;SDS011;7442;50.840;3.396;2022-09-28T07:58:01;3.42;;;1.80;;
14704;SDS011;7442;50.840;3.396;2022-09-28T08:00:31;5.00;;;2.02;;
14704;SDS011;7442;50.840;3.396;2022-09-28T08:03:01;3.92;;;1.95;;
14704;SDS011;7442;50.840;3.396;2022-09-28T08:05:32;4.53;;;2.45;;
14704;SDS011;7442;50.840;3.396;2022-09-28T08:08:03;4.35;;;2.27;;
14704;SDS011;7442;50.840;3.396;2022-09-28T08:10:33;4.45;;;2.20;;
14704;SDS011;7442;50.840;3.396;2022-09-28T08:13:04;5.10;;;2.08;;
14704;SDS011;7442;50.840;3.396;2022-09-28T08:15:35;5.97;;;2.30;;
14704;SDS011;7442;50.840;3.396;2022-09-28T08:18:05;4.53;;;2.35;;
14704;SDS011;7442;50.840;3.396;2022-09-28T08:20:35;6.47;;;2.33;;
14704;SDS011;7442;50.840;3.396;2022-09-28T08:23:22;4.20;;;2.00;;
14704;SDS011;7442;50.840;3.396;2022-09-28T08:25:53;3.27;;;1.95;;
14704;SDS011;7442;50.840;3.396;2022-09-28T08:28:23;5.33;;;2.20;;
14704;SDS011;7442;50.840;3.396;2022-09-28T08:30:53;4.10;;;1.80;;
14704;SDS011;7442;50.840;3.396;2022-09-28T08:33:25;4.83;;;2.08;;
14704;SDS011;7442;50.840;3.396;2022-09-28T08:35:56;2.67;;;2.00;;
14704;SDS011;7442;50.840;3.396;2022-09-28T08:38:28;5.50;;;2.98;;
14704;SDS011;7442;50.840;3.396;2022-09-28T08:41:14;5.65;;;2.12;;
14704;SDS011;7442;50.840;3.396;2022-09-28T08:46:46;4.97;;;2.30;;
14704;SDS011;7442;50.840;3.396;2022-09-28T08:49:18;9.93;;;2.55;;
14704;SDS011;7442;50.840;3.396;2022-09-28T08:54:35;7.20;;;2.22;;
14704;SDS011;7442;50.840;3.396;2022-09-28T08:57:18;4.17;;;1.67;;
14704;SDS011;7442;50.840;3.396;2022-09-28T08:59:54;3.67;;;1.77;;
14704;SDS011;7442;50.840;3.396;2022-09-28T09:02:34;3.77;;;2.05;;
14704;SDS011;7442;50.840;3.396;2022-09-28T09:05:10;91.57;;;26.23;;
14704;SDS011;7442;50.840;3.396;2022-09-28T09:16:08;249.75;;;73.22;;
14704;SDS011;7442;50.840;3.396;2022-09-28T09:18:57;222.58;;;64.12;;
14704;SDS011;7442;50.840;3.396;2022-09-28T09:21:35;206.97;;;60.33;;
14704;SDS011;7442;50.840;3.396;2022-09-28T09:24:15;205.72;;;62.05;;
14704;SDS011;7442;50.840;3.396;2022-09-28T09:27:03;187.07;;;57.62;;
14704;SDS011;7442;50.840;3.396;2022-09-28T09:29:37;172.02;;;55.43;;
14704;SDS011;7442;50.840;3.396;2022-09-28T09:32:21;155.95;;;46.58;;
14704;SDS011;7442;50.840;3.396;2022-09-28T09:34:57;150.12;;;50.00;;
14704;SDS011;7442;50.840;3.396;2022-09-28T09:37:34;149.25;;;46.28;;
14704;SDS011;7442;50.840;3.396;2022-09-28T09:46:05;131.35;;;42.58;;
14704;SDS011;7442;50.840;3.396;2022-09-28T09:51:24;122.47;;;40.00;;
14704;SDS011;7442;50.840;3.396;2022-09-28T09:54:09;113.83;;;37.23;;
14704;SDS011;7442;50.840;3.396;2022-09-28T09:56:41;111.35;;;35.28;;
14704;SDS011;7442;50.840;3.396;2022-09-28T09:59:20;103.25;;;36.05;;
14704;SDS011;7442;50.840;3.396;2022-09-28T10:01:54;101.70;;;33.70;;
14704;SDS011;7442;50.840;3.396;2022-09-28T10:04:27;91.80;;;29.85;;
14704;SDS011;7442;50.840;3.396;2022-09-28T10:07:03;104.75;;;32.33;;
14704;SDS011;7442;50.840;3.396;2022-09-28T10:09:42;94.35;;;30.80;;
14704;SDS011;7442;50.840;3.396;2022-09-28T10:12:21;90.65;;;29.70;;
14704;SDS011;7442;50.840;3.396;2022-09-28T10:14:48;91.92;;;29.40;;
14704;SDS011;7442;50.840;3.396;2022-09-28T10:17:19;86.12;;;28.15;;
14704;SDS011;7442;50.840;3.396;2022-09-28T10:19:52;82.67;;;28.83;;
14704;SDS011;7442;50.840;3.396;2022-09-28T10:22:25;86.80;;;29.15;;
14704;SDS011;7442;50.840;3.396;2022-09-28T10:24:56;82.37;;;27.75;;
14704;SDS011;7442;50.840;3.396;2022-09-28T10:27:32;77.87;;;28.17;;
14704;SDS011;7442;50.840;3.396;2022-09-28T10:32:52;81.50;;;27.00;;
14704;SDS011;7442;50.840;3.396;2022-09-28T10:35:25;84.77;;;25.92;;
14704;SDS011;7442;50.840;3.396;2022-09-28T10:37:59;63.98;;;21.27;;
14704;SDS011;7442;50.840;3.396;2022-09-28T10:40:33;61.42;;;19.42;;
14704;SDS011;7442;50.840;3.396;2022-09-28T10:43:26;69.40;;;21.02;;
14704;SDS011;7442;50.840;3.396;2022-09-28T10:46:06;65.50;;;22.37;;
14704;SDS011;7442;50.840;3.396;2022-09-28T10:51:19;61.83;;;20.60;;
14704;SDS011;7442;50.840;3.396;2022-09-28T10:54:01;54.98;;;19.55;;
14704;SDS011;7442;50.840;3.396;2022-09-28T10:56:35;62.50;;;19.27;;
14704;SDS011;7442;50.840;3.396;2022-09-28T10:59:53;72.50;;;20.05;;
14704;SDS011;7442;50.840;3.396;2022-09-28T11:04:50;69.55;;;19.25;;
14704;SDS011;7442;50.840;3.396;2022-09-28T11:07:26;72.80;;;19.60;;
14704;SDS011;7442;50.840;3.396;2022-09-28T11:09:59;60.60;;;18.80;;
14704;SDS011;7442;50.840;3.396;2022-09-28T11:12:36;54.75;;;17.17;;
14704;SDS011;7442;50.840;3.396;2022-09-28T11:15:10;58.92;;;17.42;;
14704;SDS011;7442;50.840;3.396;2022-09-28T11:17:40;59.10;;;16.35;;
14704;SDS011;7442;50.840;3.396;2022-09-28T11:22:57;35.33;;;11.22;;
14704;SDS011;7442;50.840;3.396;2022-09-28T11:25:30;48.90;;;12.93;;
14704;SDS011;7442;50.840;3.396;2022-09-28T11:28:00;49.67;;;14.07;;
14704;SDS011;7442;50.840;3.396;2022-09-28T11:30:36;46.68;;;13.45;;
14704;SDS011;7442;50.840;3.396;2022-09-28T11:33:15;53.00;;;13.88;;
14704;SDS011;7442;50.840;3.396;2022-09-28T11:44:34;42.43;;;13.75;;
14704;SDS011;7442;50.840;3.396;2022-09-28T11:53:10;37.30;;;12.40;;
14704;SDS011;7442;50.840;3.396;2022-09-28T11:55:53;39.38;;;12.05;;
14704;SDS011;7442;50.840;3.396;2022-09-28T11:58:31;47.03;;;11.63;;
14704;SDS011;7442;50.840;3.396;2022-09-28T12:06:57;35.28;;;11.48;;
14704;SDS011;7442;50.840;3.396;2022-09-28T12:09:35;38.63;;;11.03;;
14704;SDS011;7442;50.840;3.396;2022-09-28T12:12:05;37.45;;;10.80;;
14704;SDS011;7442;50.840;3.396;2022-09-28T12:14:38;35.67;;;10.67;;
14704;SDS011;7442;50.840;3.396;2022-09-28T12:17:23;37.28;;;10.25;;
14704;SDS011;7442;50.840;3.396;2022-09-28T12:20:00;29.80;;;11.12;;
14704;SDS011;7442;50.840;3.396;2022-09-28T12:22:31;33.28;;;10.82;;
14704;SDS011;7442;50.840;3.396;2022-09-28T12:25:11;32.90;;;10.98;;
14704;SDS011;7442;50.840;3.396;2022-09-28T12:27:50;30.37;;;9.85;;
14704;SDS011;7442;50.840;3.396;2022-09-28T12:30:29;36.28;;;9.23;;
14704;SDS011;7442;50.840;3.396;2022-09-28T12:33:03;28.35;;;9.25;;
14704;SDS011;7442;50.840;3.396;2022-09-28T12:41:40;26.20;;;9.10;;
14704;SDS011;7442;50.840;3.396;2022-09-28T12:58:31;21.37;;;8.78;;
14704;SDS011;7442;50.840;3.396;2022-09-28T13:00:22;28.73;;;9.18;;
14704;SDS011;7442;50.840;3.396;2022-09-28T13:20:32;22.25;;;7.22;;
14704;SDS011;7442;50.840;3.396;2022-09-28T13:23:12;20.43;;;7.37;;
14704;SDS011;7442;50.840;3.396;2022-09-28T13:25:49;20.00;;;6.97;;
14704;SDS011;7442;50.840;3.396;2022-09-28T13:28:20;19.40;;;6.78;;
14704;SDS011;7442;50.840;3.396;2022-09-28T13:30:53;17.12;;;7.12;;
14704;SDS011;7442;50.840;3.396;2022-09-28T13:33:30;20.43;;;7.17;;
14704;SDS011;7442;50.840;3.396;2022-09-28T13:36:04;18.42;;;7.10;;
14704;SDS011;7442;50.840;3.396;2022-09-28T13:38:54;16.55;;;6.50;;
14704;SDS011;7442;50.840;3.396;2022-09-28T13:41:29;15.48;;;7.22;;
14704;SDS011;7442;50.840;3.396;2022-09-28T13:47:12;15.20;;;6.60;;
14704;SDS011;7442;50.840;3.396;2022-09-28T13:49:47;14.50;;;6.47;;
14704;SDS011;7442;50.840;3.396;2022-09-28T13:58:05;13.83;;;6.12;;
14704;SDS011;7442;50.840;3.396;2022-09-28T14:00:52;14.38;;;6.35;;
14704;SDS011;7442;50.840;3.396;2022-09-28T14:03:28;12.23;;;6.08;;
14704;SDS011;7442;50.840;3.396;2022-09-28T14:09:18;12.53;;;5.03;;
14704;SDS011;7442;50.840;3.396;2022-09-28T14:11:58;12.82;;;5.67;;
14704;SDS011;7442;50.840;3.396;2022-09-28T14:14:47;12.43;;;5.65;;
14704;SDS011;7442;50.840;3.396;2022-09-28T14:19:59;15.25;;;5.72;;
14704;SDS011;7442;50.840;3.396;2022-09-28T14:22:38;13.32;;;5.12;;
14704;SDS011;7442;50.840;3.396;2022-09-28T14:25:24;14.30;;;5.65;;
14704;SDS011;7442;50.840;3.396;2022-09-28T14:33:23;16.48;;;5.05;;
14704;SDS011;7442;50.840;3.396;2022-09-28T14:35:55;9.28;;;4.45;;
14704;SDS011;7442;50.840;3.396;2022-09-28T14:38:45;12.53;;;4.92;;
14704;SDS011;7442;50.840;3.396;2022-09-28T14:44:13;11.53;;;4.75;;
14704;SDS011;7442;50.840;3.396;2022-09-28T14:46:46;10.25;;;4.85;;
14704;SDS011;7442;50.840;3.396;2022-09-28T14:54:37;13.13;;;4.58;;
14704;SDS011;7442;50.840;3.396;2022-09-28T14:57:26;10.95;;;4.08;;
14704;SDS011;7442;50.840;3.396;2022-09-28T14:59:58;10.82;;;4.45;;
14704;SDS011;7442;50.840;3.396;2022-09-28T15:02:31;12.73;;;4.33;;
14704;SDS011;7442;50.840;3.396;2022-09-28T15:05:08;24.20;;;4.92;;
14704;SDS011;7442;50.840;3.396;2022-09-28T15:07:46;16.70;;;4.50;;
14704;SDS011;7442;50.840;3.396;2022-09-28T15:10:43;16.12;;;5.03;;
14704;SDS011;7442;50.840;3.396;2022-09-28T15:13:28;16.05;;;4.30;;
14704;SDS011;7442;50.840;3.396;2022-09-28T15:15:52;13.98;;;4.75;;
14704;SDS011;7442;50.840;3.396;2022-09-28T15:18:36;10.40;;;3.87;;
14704;SDS011;7442;50.840;3.396;2022-09-28T15:21:22;9.18;;;3.70;;
14704;SDS011;7442;50.840;3.396;2022-09-28T15:23:53;10.72;;;3.92;;
14704;SDS011;7442;50.840;3.396;2022-09-28T15:26:25;11.60;;;4.55;;
14704;SDS011;7442;50.840;3.396;2022-09-28T15:28:59;15.10;;;4.22;;
14704;SDS011;7442;50.840;3.396;2022-09-28T15:31:33;10.72;;;3.87;;
14704;SDS011;7442;50.840;3.396;2022-09-28T15:34:04;13.68;;;4.15;;
14704;SDS011;7442;50.840;3.396;2022-09-28T15:36:53;15.83;;;4.42;;
14704;SDS011;7442;50.840;3.396;2022-09-28T15:39:29;11.53;;;3.75;;
14704;SDS011;7442;50.840;3.396;2022-09-28T15:42:01;8.78;;;4.08;;
14704;SDS011;7442;50.840;3.396;2022-09-28T15:44:35;7.45;;;3.33;;
14704;SDS011;7442;50.840;3.396;2022-09-28T15:47:15;15.53;;;3.92;;
14704;SDS011;7442;50.840;3.396;2022-09-28T15:49:53;9.30;;;3.80;;
14704;SDS011;7442;50.840;3.396;2022-09-28T15:55:14;7.58;;;3.20;;
14704;SDS011;7442;50.840;3.396;2022-09-28T15:57:46;9.28;;;3.55;;
14704;SDS011;7442;50.840;3.396;2022-09-28T16:05:42;7.22;;;3.17;;
14704;SDS011;7442;50.840;3.396;2022-09-28T16:08:21;6.40;;;3.22;;
14704;SDS011;7442;50.840;3.396;2022-09-28T16:11:16;9.78;;;3.40;;
14704;SDS011;7442;50.840;3.396;2022-09-28T16:14:03;5.67;;;2.87;;
14704;SDS011;7442;50.840;3.396;2022-09-28T16:16:46;7.58;;;3.10;;
14704;SDS011;7442;50.840;3.396;2022-09-28T16:19:21;6.40;;;2.65;;
14704;SDS011;7442;50.840;3.396;2022-09-28T16:21:57;7.25;;;3.30;;
14704;SDS011;7442;50.840;3.396;2022-09-28T16:24:32;6.55;;;2.95;;
14704;SDS011;7442;50.840;3.396;2022-09-28T16:27:07;8.90;;;3.47;;
14704;SDS011;7442;50.840;3.396;2022-09-28T16:30:15;8.08;;;2.98;;
14704;SDS011;7442;50.840;3.396;2022-09-28T16:32:56;5.37;;;2.33;;
14704;SDS011;7442;50.840;3.396;2022-09-28T16:35:30;7.97;;;2.52;;
14704;SDS011;7442;50.840;3.396;2022-09-28T16:38:11;5.87;;;2.60;;
14704;SDS011;7442;50.840;3.396;2022-09-28T16:40:49;3.70;;;1.87;;
14704;SDS011;7442;50.840;3.396;2022-09-28T16:43:23;5.05;;;1.90;;
14704;SDS011;7442;50.840;3.396;2022-09-28T16:45:57;6.58;;;2.40;;
14704;SDS011;7442;50.840;3.396;2022-09-28T16:48:30;4.60;;;2.05;;
14704;SDS011;7442;50.840;3.396;2022-09-28T16:51:02;3.92;;;1.90;;
14704;SDS011;7442;50.840;3.396;2022-09-28T16:53:32;6.90;;;2.10;;
14704;SDS011;7442;50.840;3.396;2022-09-28T16:56:20;6.45;;;2.10;;
14704;SDS011;7442;50.840;3.396;2022-09-28T16:58:50;5.28;;;2.17;;
14704;SDS011;7442;50.840;3.396;2022-09-28T17:01:22;9.70;;;2.67;;
14704;SDS011;7442;50.840;3.396;2022-09-28T17:03:52;9.53;;;2.12;;
14704;SDS011;7442;50.840;3.396;2022-09-28T17:06:22;4.85;;;1.98;;
14704;SDS011;7442;50.840;3.396;2022-09-28T17:08:54;6.92;;;2.22;;
14704;SDS011;7442;50.840;3.396;2022-09-28T17:11:26;7.65;;;1.98;;
14704;SDS011;7442;50.840;3.396;2022-09-28T17:13:56;7.58;;;1.92;;
14704;SDS011;7442;50.840;3.396;2022-09-28T17:16:27;6.65;;;1.95;;
14704;SDS011;7442;50.840;3.396;2022-09-28T17:19:00;4.75;;;1.90;;
14704;SDS011;7442;50.840;3.396;2022-09-28T17:21:30;2.90;;;1.72;;
14704;SDS011;7442;50.840;3.396;2022-09-28T17:24:00;8.08;;;2.12;;
14704;SDS011;7442;50.840;3.396;2022-09-28T17:26:30;6.35;;;1.90;;
14704;SDS011;7442;50.840;3.396;2022-09-28T17:29:01;7.97;;;2.10;;
14704;SDS011;7442;50.840;3.396;2022-09-28T17:31:33;3.92;;;1.90;;
14704;SDS011;7442;50.840;3.396;2022-09-28T17:34:03;10.88;;;2.20;;
14704;SDS011;7442;50.840;3.396;2022-09-28T17:36:33;4.00;;;1.90;;
14704;SDS011;7442;50.840;3.396;2022-09-28T17:39:05;7.47;;;2.37;;
14704;SDS011;7442;50.840;3.396;2022-09-28T17:41:37;13.40;;;6.78;;
14704;SDS011;7442;50.840;3.396;2022-09-28T17:44:08;26.90;;;12.35;;
14704;SDS011;7442;50.840;3.396;2022-09-28T17:46:41;27.20;;;16.05;;
14704;SDS011;7442;50.840;3.396;2022-09-28T17:49:13;43.85;;;13.98;;
14704;SDS011;7442;50.840;3.396;2022-09-28T17:51:44;23.25;;;12.13;;
14704;SDS011;7442;50.840;3.396;2022-09-28T17:54:14;21.85;;;11.50;;
14704;SDS011;7442;50.840;3.396;2022-09-28T17:56:46;23.55;;;12.55;;
14704;SDS011;7442;50.840;3.396;2022-09-28T17:59:16;20.35;;;11.08;;
14704;SDS011;7442;50.840;3.396;2022-09-28T18:01:47;19.73;;;11.28;;
14704;SDS011;7442;50.840;3.396;2022-09-28T18:04:17;23.27;;;10.45;;
14704;SDS011;7442;50.840;3.396;2022-09-28T18:06:47;20.70;;;10.70;;